sensor_id;sensor_type;location;lat;lon;timestamp;P1;durP1;ratioP1;P2;durP2;ratioP2
30647;SDS011;17683;53.360;9.736;2023-06-26T00:00:41;12.80;;;11.65;;
30647;SDS011;17683;53.360;9.736;2023-06-26T00:03:06;14.88;;;11.93;;
30647;SDS011;17683;53.360;9.736;2023-06-26T00:05:32;11.95;;;10.85;;
30647;SDS011;17683;53.360;9.736;2023-06-26T00:07:59;12.88;;;11.75;;
30647;SDS011;17683;53.360;9.736;2023-06-26T00:10:26;13.25;;;11.95;;
30647;SDS011;17683;53.360;9.736;2023-06-26T00:12:52;13.60;;;12.40;;
30647;SDS011;17683;53.360;9.736;2023-06-26T00:15:18;11.90;;;10.90;;
30647;SDS011;17683;53.360;9.736;2023-06-26T00:17:44;12.38;;;11.18;;
30647;SDS011;17683;53.360;9.736;2023-06-26T00:20:10;15.82;;;11.13;;
30647;SDS011;17683;53.360;9.736;2023-06-26T00:22:36;12.80;;;11.30;;
30647;SDS011;17683;53.360;9.736;2023-06-26T00:25:05;12.95;;;11.68;;
30647;SDS011;17683;53.360;9.736;2023-06-26T00:27:31;14.23;;;11.68;;
30647;SDS011;17683;53.360;9.736;2023-06-26T00:29:57;12.52;;;11.35;;
30647;SDS011;17683;53.360;9.736;2023-06-26T00:32:23;12.35;;;11.18;;
30647;SDS011;17683;53.360;9.736;2023-06-26T00:34:48;12.05;;;10.90;;
30647;SDS011;17683;53.360;9.736;2023-06-26T00:37:14;12.65;;;11.50;;
30647;SDS011;17683;53.360;9.736;2023-06-26T00:39:40;12.20;;;10.95;;
30647;SDS011;17683;53.360;9.736;2023-06-26T00:42:05;12.02;;;10.90;;
30647;SDS011;17683;53.360;9.736;2023-06-26T00:44:31;13.10;;;10.82;;
30647;SDS011;17683;53.360;9.736;2023-06-26T00:46:57;11.95;;;10.85;;
30647;SDS011;17683;53.360;9.736;2023-06-26T00:49:23;11.60;;;10.38;;
30647;SDS011;17683;53.360;9.736;2023-06-26T00:51:50;12.75;;;11.05;;
30647;SDS011;17683;53.360;9.736;2023-06-26T00:54:16;14.48;;;12.43;;
30647;SDS011;17683;53.360;9.736;2023-06-26T00:56:45;14.35;;;10.73;;
30647;SDS011;17683;53.360;9.736;2023-06-26T00:59:12;13.20;;;11.18;;
30647;SDS011;17683;53.360;9.736;2023-06-26T01:01:38;12.55;;;11.43;;
30647;SDS011;17683;53.360;9.736;2023-06-26T01:04:04;13.20;;;11.90;;
30647;SDS011;17683;53.360;9.736;2023-06-26T01:06:30;12.20;;;11.10;;
30647;SDS011;17683;53.360;9.736;2023-06-26T01:09:00;12.68;;;11.48;;
30647;SDS011;17683;53.360;9.736;2023-06-26T01:11:27;13.00;;;11.57;;
30647;SDS011;17683;53.360;9.736;2023-06-26T01:13:52;12.05;;;10.88;;
30647;SDS011;17683;53.360;9.736;2023-06-26T01:16:20;11.65;;;10.55;;
30647;SDS011;17683;53.360;9.736;2023-06-26T01:18:46;11.80;;;10.65;;
30647;SDS011;17683;53.360;9.736;2023-06-26T01:21:13;11.95;;;10.85;;
30647;SDS011;17683;53.360;9.736;2023-06-26T01:23:56;11.43;;;10.43;;
30647;SDS011;17683;53.360;9.736;2023-06-26T01:26:29;11.80;;;10.70;;
30647;SDS011;17683;53.360;9.736;2023-06-26T01:29:00;10.75;;;9.70;;
30647;SDS011;17683;53.360;9.736;2023-06-26T01:31:31;11.75;;;10.50;;
30647;SDS011;17683;53.360;9.736;2023-06-26T01:33:58;10.40;;;9.40;;
30647;SDS011;17683;53.360;9.736;2023-06-26T01:36:25;11.45;;;9.82;;
30647;SDS011;17683;53.360;9.736;2023-06-26T01:38:52;11.25;;;10.10;;
30647;SDS011;17683;53.360;9.736;2023-06-26T01:41:18;10.75;;;9.75;;
30647;SDS011;17683;53.360;9.736;2023-06-26T01:46:51;10.88;;;9.77;;
30647;SDS011;17683;53.360;9.736;2023-06-26T01:52:20;10.80;;;9.80;;
30647;SDS011;17683;53.360;9.736;2023-06-26T01:57:34;11.63;;;9.68;;
30647;SDS011;17683;53.360;9.736;2023-06-26T02:00:02;11.25;;;10.05;;
30647;SDS011;17683;53.360;9.736;2023-06-26T02:02:31;12.13;;;10.50;;
30647;SDS011;17683;53.360;9.736;2023-06-26T02:04:57;10.30;;;9.23;;
30647;SDS011;17683;53.360;9.736;2023-06-26T02:07:22;11.57;;;9.57;;
30647;SDS011;17683;53.360;9.736;2023-06-26T02:09:48;12.40;;;9.48;;
30647;SDS011;17683;53.360;9.736;2023-06-26T02:12:14;10.05;;;9.10;;
30647;SDS011;17683;53.360;9.736;2023-06-26T02:14:39;13.25;;;9.75;;
30647;SDS011;17683;53.360;9.736;2023-06-26T02:17:05;12.45;;;9.30;;
30647;SDS011;17683;53.360;9.736;2023-06-26T02:19:31;11.27;;;9.32;;
30647;SDS011;17683;53.360;9.736;2023-06-26T02:21:57;10.60;;;9.50;;
30647;SDS011;17683;53.360;9.736;2023-06-26T02:24:23;10.45;;;8.80;;
30647;SDS011;17683;53.360;9.736;2023-06-26T02:26:48;10.27;;;9.18;;
30647;SDS011;17683;53.360;9.736;2023-06-26T02:29:14;11.60;;;9.18;;
30647;SDS011;17683;53.360;9.736;2023-06-26T02:31:40;10.65;;;9.55;;
30647;SDS011;17683;53.360;9.736;2023-06-26T02:34:06;11.40;;;9.23;;
30647;SDS011;17683;53.360;9.736;2023-06-26T02:36:32;11.40;;;9.32;;
30647;SDS011;17683;53.360;9.736;2023-06-26T02:38:57;10.48;;;9.45;;
30647;SDS011;17683;53.360;9.736;2023-06-26T02:41:23;10.20;;;9.20;;
30647;SDS011;17683;53.360;9.736;2023-06-26T02:43:49;10.63;;;9.52;;
30647;SDS011;17683;53.360;9.736;2023-06-26T02:46:14;10.75;;;9.05;;
30647;SDS011;17683;53.360;9.736;2023-06-26T02:48:40;12.25;;;9.68;;
30647;SDS011;17683;53.360;9.736;2023-06-26T02:51:07;12.00;;;8.73;;
30647;SDS011;17683;53.360;9.736;2023-06-26T02:53:32;9.75;;;8.85;;
30647;SDS011;17683;53.360;9.736;2023-06-26T02:55:58;9.95;;;8.95;;
30647;SDS011;17683;53.360;9.736;2023-06-26T02:58:24;11.73;;;9.18;;
30647;SDS011;17683;53.360;9.736;2023-06-26T03:00:49;11.27;;;9.38;;
30647;SDS011;17683;53.360;9.736;2023-06-26T03:03:16;12.55;;;9.05;;
30647;SDS011;17683;53.360;9.736;2023-06-26T03:05:41;13.95;;;9.70;;
30647;SDS011;17683;53.360;9.736;2023-06-26T03:08:07;10.77;;;9.40;;
30647;SDS011;17683;53.360;9.736;2023-06-26T03:10:33;9.45;;;8.55;;
30647;SDS011;17683;53.360;9.736;2023-06-26T03:12:59;9.30;;;8.45;;
30647;SDS011;17683;53.360;9.736;2023-06-26T03:15:24;11.57;;;9.60;;
30647;SDS011;17683;53.360;9.736;2023-06-26T03:17:50;11.38;;;9.45;;
30647;SDS011;17683;53.360;9.736;2023-06-26T03:20:16;9.80;;;8.57;;
30647;SDS011;17683;53.360;9.736;2023-06-26T03:22:41;11.10;;;9.77;;
30647;SDS011;17683;53.360;9.736;2023-06-26T03:25:07;9.32;;;8.20;;
30647;SDS011;17683;53.360;9.736;2023-06-26T03:27:33;9.85;;;8.85;;
30647;SDS011;17683;53.360;9.736;2023-06-26T03:29:59;10.23;;;8.55;;
30647;SDS011;17683;53.360;9.736;2023-06-26T03:32:25;10.48;;;9.48;;
30647;SDS011;17683;53.360;9.736;2023-06-26T03:34:50;10.77;;;8.88;;
30647;SDS011;17683;53.360;9.736;2023-06-26T03:37:18;12.68;;;9.07;;
30647;SDS011;17683;53.360;9.736;2023-06-26T03:39:43;11.68;;;8.85;;
30647;SDS011;17683;53.360;9.736;2023-06-26T03:42:09;10.68;;;9.40;;
30647;SDS011;17683;53.360;9.736;2023-06-26T03:44:35;10.60;;;9.48;;
30647;SDS011;17683;53.360;9.736;2023-06-26T03:47:00;10.68;;;9.13;;
30647;SDS011;17683;53.360;9.736;2023-06-26T03:49:26;10.13;;;9.23;;
30647;SDS011;17683;53.360;9.736;2023-06-26T03:51:52;10.05;;;9.10;;
30647;SDS011;17683;53.360;9.736;2023-06-26T03:54:18;9.65;;;8.63;;
30647;SDS011;17683;53.360;9.736;2023-06-26T03:56:43;10.20;;;9.30;;
30647;SDS011;17683;53.360;9.736;2023-06-26T03:59:09;10.75;;;9.68;;
30647;SDS011;17683;53.360;9.736;2023-06-26T04:01:35;10.27;;;9.30;;
30647;SDS011;17683;53.360;9.736;2023-06-26T04:04:02;11.02;;;9.93;;
30647;SDS011;17683;53.360;9.736;2023-06-26T04:06:28;11.43;;;10.00;;
30647;SDS011;17683;53.360;9.736;2023-06-26T04:08:54;10.30;;;9.38;;
30647;SDS011;17683;53.360;9.736;2023-06-26T04:11:20;10.43;;;9.32;;
30647;SDS011;17683;53.360;9.736;2023-06-26T04:13:45;10.80;;;9.68;;
30647;SDS011;17683;53.360;9.736;2023-06-26T04:16:11;11.80;;;9.00;;
30647;SDS011;17683;53.360;9.736;2023-06-26T04:18:37;12.55;;;9.65;;
30647;SDS011;17683;53.360;9.736;2023-06-26T04:21:09;11.20;;;9.23;;
30647;SDS011;17683;53.360;9.736;2023-06-26T04:23:36;9.75;;;8.60;;
30647;SDS011;17683;53.360;9.736;2023-06-26T04:26:03;15.45;;;9.52;;
30647;SDS011;17683;53.360;9.736;2023-06-26T04:28:30;10.00;;;8.88;;
30647;SDS011;17683;53.360;9.736;2023-06-26T04:31:00;10.18;;;9.18;;
30647;SDS011;17683;53.360;9.736;2023-06-26T04:33:27;10.43;;;9.18;;
30647;SDS011;17683;53.360;9.736;2023-06-26T04:35:53;10.43;;;9.43;;
30647;SDS011;17683;53.360;9.736;2023-06-26T04:38:19;10.52;;;9.35;;
30647;SDS011;17683;53.360;9.736;2023-06-26T04:40:45;9.93;;;8.93;;
30647;SDS011;17683;53.360;9.736;2023-06-26T04:43:11;10.73;;;9.48;;
30647;SDS011;17683;53.360;9.736;2023-06-26T04:45:37;11.88;;;9.68;;
30647;SDS011;17683;53.360;9.736;2023-06-26T04:48:02;10.88;;;9.55;;
30647;SDS011;17683;53.360;9.736;2023-06-26T04:50:29;10.68;;;9.48;;
30647;SDS011;17683;53.360;9.736;2023-06-26T04:52:55;11.60;;;10.40;;
30647;SDS011;17683;53.360;9.736;2023-06-26T04:55:23;10.90;;;9.60;;
30647;SDS011;17683;53.360;9.736;2023-06-26T04:57:50;11.18;;;10.07;;
30647;SDS011;17683;53.360;9.736;2023-06-26T05:00:15;11.38;;;9.70;;
30647;SDS011;17683;53.360;9.736;2023-06-26T05:02:41;12.15;;;10.05;;
30647;SDS011;17683;53.360;9.736;2023-06-26T05:05:08;12.88;;;10.18;;
30647;SDS011;17683;53.360;9.736;2023-06-26T05:07:33;11.40;;;10.35;;
30647;SDS011;17683;53.360;9.736;2023-06-26T05:09:59;10.60;;;9.55;;
30647;SDS011;17683;53.360;9.736;2023-06-26T05:12:25;10.38;;;8.90;;
30647;SDS011;17683;53.360;9.736;2023-06-26T05:14:51;11.77;;;10.05;;
30647;SDS011;17683;53.360;9.736;2023-06-26T05:17:16;11.52;;;9.70;;
30647;SDS011;17683;53.360;9.736;2023-06-26T05:19:42;11.02;;;9.63;;
30647;SDS011;17683;53.360;9.736;2023-06-26T05:22:08;11.48;;;9.32;;
30647;SDS011;17683;53.360;9.736;2023-06-26T05:24:37;10.10;;;9.10;;
30647;SDS011;17683;53.360;9.736;2023-06-26T05:27:04;11.02;;;9.73;;
30647;SDS011;17683;53.360;9.736;2023-06-26T05:29:30;11.13;;;9.52;;
30647;SDS011;17683;53.360;9.736;2023-06-26T05:31:56;9.85;;;8.90;;
30647;SDS011;17683;53.360;9.736;2023-06-26T05:34:23;10.10;;;9.10;;
30647;SDS011;17683;53.360;9.736;2023-06-26T05:36:50;13.85;;;9.25;;
30647;SDS011;17683;53.360;9.736;2023-06-26T05:39:17;12.02;;;9.43;;
30647;SDS011;17683;53.360;9.736;2023-06-26T05:41:44;20.75;;;9.10;;
30647;SDS011;17683;53.360;9.736;2023-06-26T05:44:10;8.77;;;7.95;;
30647;SDS011;17683;53.360;9.736;2023-06-26T05:46:35;9.82;;;8.80;;
30647;SDS011;17683;53.360;9.736;2023-06-26T05:49:01;9.65;;;8.75;;
30647;SDS011;17683;53.360;9.736;2023-06-26T05:51:27;9.73;;;8.73;;
30647;SDS011;17683;53.360;9.736;2023-06-26T05:53:54;10.75;;;8.88;;
30647;SDS011;17683;53.360;9.736;2023-06-26T05:56:20;8.88;;;8.00;;
30647;SDS011;17683;53.360;9.736;2023-06-26T05:58:46;10.18;;;8.55;;
30647;SDS011;17683;53.360;9.736;2023-06-26T06:01:12;11.75;;;8.40;;
30647;SDS011;17683;53.360;9.736;2023-06-26T06:03:38;9.52;;;8.23;;
30647;SDS011;17683;53.360;9.736;2023-06-26T06:06:04;9.15;;;8.25;;
30647;SDS011;17683;53.360;9.736;2023-06-26T06:08:30;9.75;;;8.30;;
30647;SDS011;17683;53.360;9.736;2023-06-26T06:10:56;12.02;;;8.80;;
30647;SDS011;17683;53.360;9.736;2023-06-26T06:13:22;8.00;;;7.05;;
30647;SDS011;17683;53.360;9.736;2023-06-26T06:15:47;10.23;;;8.70;;
30647;SDS011;17683;53.360;9.736;2023-06-26T06:18:14;10.30;;;7.93;;
30647;SDS011;17683;53.360;9.736;2023-06-26T06:20:40;8.80;;;7.60;;
30647;SDS011;17683;53.360;9.736;2023-06-26T06:23:05;9.85;;;7.57;;
30647;SDS011;17683;53.360;9.736;2023-06-26T06:25:31;9.35;;;8.20;;
30647;SDS011;17683;53.360;9.736;2023-06-26T06:27:57;9.77;;;8.77;;
30647;SDS011;17683;53.360;9.736;2023-06-26T06:30:23;8.52;;;7.47;;
30647;SDS011;17683;53.360;9.736;2023-06-26T06:32:48;8.13;;;7.32;;
30647;SDS011;17683;53.360;9.736;2023-06-26T06:35:19;9.35;;;8.32;;
30647;SDS011;17683;53.360;9.736;2023-06-26T06:37:45;9.07;;;8.18;;
30647;SDS011;17683;53.360;9.736;2023-06-26T06:40:11;8.30;;;7.53;;
30647;SDS011;17683;53.360;9.736;2023-06-26T06:42:37;9.15;;;8.25;;
30647;SDS011;17683;53.360;9.736;2023-06-26T06:45:03;8.63;;;7.72;;
30647;SDS011;17683;53.360;9.736;2023-06-26T06:47:29;13.23;;;7.75;;
30647;SDS011;17683;53.360;9.736;2023-06-26T06:49:55;9.15;;;7.38;;
30647;SDS011;17683;53.360;9.736;2023-06-26T06:52:20;8.85;;;7.45;;
30647;SDS011;17683;53.360;9.736;2023-06-26T06:57:30;9.52;;;8.27;;
30647;SDS011;17683;53.360;9.736;2023-06-26T06:59:55;8.95;;;8.15;;
30647;SDS011;17683;53.360;9.736;2023-06-26T07:02:21;8.75;;;6.95;;
30647;SDS011;17683;53.360;9.736;2023-06-26T07:04:47;7.82;;;7.13;;
30647;SDS011;17683;53.360;9.736;2023-06-26T07:07:12;8.77;;;6.78;;
30647;SDS011;17683;53.360;9.736;2023-06-26T07:09:41;8.48;;;7.63;;
30647;SDS011;17683;53.360;9.736;2023-06-26T07:12:07;8.98;;;7.90;;
30647;SDS011;17683;53.360;9.736;2023-06-26T07:14:32;7.90;;;7.10;;
30647;SDS011;17683;53.360;9.736;2023-06-26T07:16:58;9.07;;;7.60;;
30647;SDS011;17683;53.360;9.736;2023-06-26T07:19:24;8.55;;;7.72;;
30647;SDS011;17683;53.360;9.736;2023-06-26T07:21:49;8.65;;;7.85;;
30647;SDS011;17683;53.360;9.736;2023-06-26T07:24:15;8.50;;;7.38;;
30647;SDS011;17683;53.360;9.736;2023-06-26T07:26:41;9.18;;;8.27;;
30647;SDS011;17683;53.360;9.736;2023-06-26T07:29:06;10.75;;;7.63;;
30647;SDS011;17683;53.360;9.736;2023-06-26T07:31:32;8.05;;;7.30;;
30647;SDS011;17683;53.360;9.736;2023-06-26T07:33:58;9.20;;;7.88;;
30647;SDS011;17683;53.360;9.736;2023-06-26T07:36:23;7.65;;;6.70;;
30647;SDS011;17683;53.360;9.736;2023-06-26T07:38:49;9.32;;;7.50;;
30647;SDS011;17683;53.360;9.736;2023-06-26T07:41:15;8.63;;;7.82;;
30647;SDS011;17683;53.360;9.736;2023-06-26T07:43:41;8.55;;;7.65;;
30647;SDS011;17683;53.360;9.736;2023-06-26T07:46:06;12.27;;;8.07;;
30647;SDS011;17683;53.360;9.736;2023-06-26T07:48:32;8.63;;;7.72;;
30647;SDS011;17683;53.360;9.736;2023-06-26T07:50:58;10.13;;;8.40;;
30647;SDS011;17683;53.360;9.736;2023-06-26T07:53:23;8.48;;;7.68;;
30647;SDS011;17683;53.360;9.736;2023-06-26T07:55:49;11.25;;;7.88;;
30647;SDS011;17683;53.360;9.736;2023-06-26T07:58:15;9.60;;;8.30;;
30647;SDS011;17683;53.360;9.736;2023-06-26T08:00:41;8.30;;;7.60;;
30647;SDS011;17683;53.360;9.736;2023-06-26T08:03:07;10.65;;;8.20;;
30647;SDS011;17683;53.360;9.736;2023-06-26T08:05:33;9.30;;;7.65;;
30647;SDS011;17683;53.360;9.736;2023-06-26T08:07:58;8.77;;;7.82;;
30647;SDS011;17683;53.360;9.736;2023-06-26T08:10:26;9.55;;;8.43;;
30647;SDS011;17683;53.360;9.736;2023-06-26T08:12:52;9.73;;;8.75;;
30647;SDS011;17683;53.360;9.736;2023-06-26T08:15:18;10.75;;;7.95;;
30647;SDS011;17683;53.360;9.736;2023-06-26T08:17:43;11.80;;;8.15;;
30647;SDS011;17683;53.360;9.736;2023-06-26T08:20:10;9.20;;;7.78;;
30647;SDS011;17683;53.360;9.736;2023-06-26T08:22:36;10.45;;;8.23;;
30647;SDS011;17683;53.360;9.736;2023-06-26T08:25:02;9.80;;;8.80;;
30647;SDS011;17683;53.360;9.736;2023-06-26T08:27:29;8.70;;;7.85;;
30647;SDS011;17683;53.360;9.736;2023-06-26T08:29:55;10.82;;;9.23;;
30647;SDS011;17683;53.360;9.736;2023-06-26T08:32:20;10.57;;;8.27;;
30647;SDS011;17683;53.360;9.736;2023-06-26T08:34:46;9.73;;;8.18;;
30647;SDS011;17683;53.360;9.736;2023-06-26T08:37:11;20.05;;;8.40;;
30647;SDS011;17683;53.360;9.736;2023-06-26T08:39:37;14.02;;;8.38;;
30647;SDS011;17683;53.360;9.736;2023-06-26T08:42:03;10.40;;;8.57;;
30647;SDS011;17683;53.360;9.736;2023-06-26T08:44:29;14.65;;;9.75;;
30647;SDS011;17683;53.360;9.736;2023-06-26T08:46:55;12.02;;;9.10;;
30647;SDS011;17683;53.360;9.736;2023-06-26T08:49:21;11.45;;;9.43;;
30647;SDS011;17683;53.360;9.736;2023-06-26T08:52:02;13.10;;;10.65;;
30647;SDS011;17683;53.360;9.736;2023-06-26T08:54:36;13.75;;;10.10;;
30647;SDS011;17683;53.360;9.736;2023-06-26T08:57:09;13.82;;;10.80;;
30647;SDS011;17683;53.360;9.736;2023-06-26T08:59:36;13.63;;;10.20;;
30647;SDS011;17683;53.360;9.736;2023-06-26T09:02:02;11.57;;;9.45;;
30647;SDS011;17683;53.360;9.736;2023-06-26T09:04:28;10.32;;;8.90;;
30647;SDS011;17683;53.360;9.736;2023-06-26T09:06:53;10.63;;;9.60;;
30647;SDS011;17683;53.360;9.736;2023-06-26T09:09:19;16.20;;;10.55;;
30647;SDS011;17683;53.360;9.736;2023-06-26T09:11:45;14.20;;;9.52;;
30647;SDS011;17683;53.360;9.736;2023-06-26T09:14:11;10.00;;;8.38;;
30647;SDS011;17683;53.360;9.736;2023-06-26T09:16:41;10.27;;;9.18;;
30647;SDS011;17683;53.360;9.736;2023-06-26T09:19:13;15.93;;;10.65;;
30647;SDS011;17683;53.360;9.736;2023-06-26T09:21:40;11.40;;;9.85;;
30647;SDS011;17683;53.360;9.736;2023-06-26T09:24:07;10.55;;;9.45;;
30647;SDS011;17683;53.360;9.736;2023-06-26T09:26:35;11.45;;;10.20;;
30647;SDS011;17683;53.360;9.736;2023-06-26T09:29:05;13.02;;;9.40;;
30647;SDS011;17683;53.360;9.736;2023-06-26T09:31:32;11.23;;;10.00;;
30647;SDS011;17683;53.360;9.736;2023-06-26T09:33:59;11.43;;;9.70;;
30647;SDS011;17683;53.360;9.736;2023-06-26T09:36:27;12.35;;;9.30;;
30647;SDS011;17683;53.360;9.736;2023-06-26T09:38:54;13.98;;;9.57;;
30647;SDS011;17683;53.360;9.736;2023-06-26T09:41:20;13.65;;;10.02;;
30647;SDS011;17683;53.360;9.736;2023-06-26T09:43:49;12.75;;;8.73;;
30647;SDS011;17683;53.360;9.736;2023-06-26T09:46:25;16.05;;;10.50;;
30647;SDS011;17683;53.360;9.736;2023-06-26T09:49:02;14.23;;;10.07;;
30647;SDS011;17683;53.360;9.736;2023-06-26T09:51:30;11.50;;;9.23;;
30647;SDS011;17683;53.360;9.736;2023-06-26T09:54:00;10.10;;;9.02;;
30647;SDS011;17683;53.360;9.736;2023-06-26T09:56:27;13.05;;;8.85;;
30647;SDS011;17683;53.360;9.736;2023-06-26T09:58:55;33.28;;;8.77;;
30647;SDS011;17683;53.360;9.736;2023-06-26T10:01:22;10.48;;;7.07;;
30647;SDS011;17683;53.360;9.736;2023-06-26T10:03:49;13.15;;;7.15;;
30647;SDS011;17683;53.360;9.736;2023-06-26T10:06:14;10.65;;;6.53;;
30647;SDS011;17683;53.360;9.736;2023-06-26T10:08:44;9.80;;;6.38;;
30647;SDS011;17683;53.360;9.736;2023-06-26T10:11:11;12.35;;;6.97;;
30647;SDS011;17683;53.360;9.736;2023-06-26T10:13:42;11.25;;;7.28;;
30647;SDS011;17683;53.360;9.736;2023-06-26T10:16:11;11.43;;;6.85;;
30647;SDS011;17683;53.360;9.736;2023-06-26T10:18:38;10.52;;;6.65;;
30647;SDS011;17683;53.360;9.736;2023-06-26T10:21:05;9.50;;;7.18;;
30647;SDS011;17683;53.360;9.736;2023-06-26T10:23:33;10.73;;;7.30;;
30647;SDS011;17683;53.360;9.736;2023-06-26T10:26:01;9.07;;;6.68;;
30647;SDS011;17683;53.360;9.736;2023-06-26T10:28:30;10.15;;;6.72;;
30647;SDS011;17683;53.360;9.736;2023-06-26T10:30:58;11.77;;;7.80;;
30647;SDS011;17683;53.360;9.736;2023-06-26T10:33:27;9.60;;;7.65;;
30647;SDS011;17683;53.360;9.736;2023-06-26T10:35:54;12.57;;;7.40;;
30647;SDS011;17683;53.360;9.736;2023-06-26T10:39:03;8.20;;;7.13;;
30647;SDS011;17683;53.360;9.736;2023-06-26T10:41:36;10.68;;;8.38;;
30647;SDS011;17683;53.360;9.736;2023-06-26T10:44:07;11.38;;;8.88;;
30647;SDS011;17683;53.360;9.736;2023-06-26T10:46:33;15.75;;;10.48;;
30647;SDS011;17683;53.360;9.736;2023-06-26T10:49:20;13.43;;;11.13;;
30647;SDS011;17683;53.360;9.736;2023-06-26T10:51:50;16.35;;;11.32;;
30647;SDS011;17683;53.360;9.736;2023-06-26T10:54:17;16.33;;;10.13;;
30647;SDS011;17683;53.360;9.736;2023-06-26T10:56:45;11.55;;;9.23;;
30647;SDS011;17683;53.360;9.736;2023-06-26T10:59:16;14.63;;;9.85;;
30647;SDS011;17683;53.360;9.736;2023-06-26T11:02:05;14.07;;;9.18;;
30647;SDS011;17683;53.360;9.736;2023-06-26T11:07:21;15.07;;;7.85;;
30647;SDS011;17683;53.360;9.736;2023-06-26T11:12:45;14.40;;;8.00;;
30647;SDS011;17683;53.360;9.736;2023-06-26T11:15:14;11.73;;;6.88;;
30647;SDS011;17683;53.360;9.736;2023-06-26T11:17:41;10.75;;;6.60;;
30647;SDS011;17683;53.360;9.736;2023-06-26T11:20:09;10.18;;;5.95;;
30647;SDS011;17683;53.360;9.736;2023-06-26T11:22:40;9.93;;;6.18;;
30647;SDS011;17683;53.360;9.736;2023-06-26T11:25:07;14.23;;;6.03;;
30647;SDS011;17683;53.360;9.736;2023-06-26T11:30:06;10.27;;;5.00;;
30647;SDS011;17683;53.360;9.736;2023-06-26T11:32:34;11.20;;;5.13;;
30647;SDS011;17683;53.360;9.736;2023-06-26T11:35:01;12.75;;;4.78;;
30647;SDS011;17683;53.360;9.736;2023-06-26T11:37:26;9.20;;;3.38;;
30647;SDS011;17683;53.360;9.736;2023-06-26T11:39:52;8.98;;;3.50;;
30647;SDS011;17683;53.360;9.736;2023-06-26T11:42:19;10.00;;;3.17;;
30647;SDS011;17683;53.360;9.736;2023-06-26T11:44:46;7.90;;;3.55;;
30647;SDS011;17683;53.360;9.736;2023-06-26T11:47:12;7.60;;;2.97;;
30647;SDS011;17683;53.360;9.736;2023-06-26T11:49:46;8.20;;;3.20;;
30647;SDS011;17683;53.360;9.736;2023-06-26T11:52:13;9.55;;;3.35;;
30647;SDS011;17683;53.360;9.736;2023-06-26T11:54:40;7.20;;;2.58;;
30647;SDS011;17683;53.360;9.736;2023-06-26T11:57:14;10.13;;;4.03;;
30647;SDS011;17683;53.360;9.736;2023-06-26T11:59:40;8.48;;;2.10;;
30647;SDS011;17683;53.360;9.736;2023-06-26T12:02:10;10.80;;;3.15;;
30647;SDS011;17683;53.360;9.736;2023-06-26T12:04:38;9.65;;;2.85;;
30647;SDS011;17683;53.360;9.736;2023-06-26T12:07:07;10.90;;;3.20;;
30647;SDS011;17683;53.360;9.736;2023-06-26T12:09:38;9.70;;;2.70;;
30647;SDS011;17683;53.360;9.736;2023-06-26T12:12:09;11.75;;;4.13;;
30647;SDS011;17683;53.360;9.736;2023-06-26T12:14:35;7.22;;;2.45;;
30647;SDS011;17683;53.360;9.736;2023-06-26T12:17:05;11.20;;;2.85;;
30647;SDS011;17683;53.360;9.736;2023-06-26T12:19:39;8.68;;;2.83;;
30647;SDS011;17683;53.360;9.736;2023-06-26T12:22:08;10.93;;;2.83;;
30647;SDS011;17683;53.360;9.736;2023-06-26T12:24:36;7.95;;;2.53;;
30647;SDS011;17683;53.360;9.736;2023-06-26T12:27:07;7.55;;;2.83;;
30647;SDS011;17683;53.360;9.736;2023-06-26T12:29:37;9.88;;;2.85;;
30647;SDS011;17683;53.360;9.736;2023-06-26T12:32:03;6.50;;;2.53;;
30647;SDS011;17683;53.360;9.736;2023-06-26T12:34:33;9.13;;;3.20;;
30647;SDS011;17683;53.360;9.736;2023-06-26T12:37:01;6.65;;;2.65;;
30647;SDS011;17683;53.360;9.736;2023-06-26T12:39:30;8.23;;;2.95;;
30647;SDS011;17683;53.360;9.736;2023-06-26T12:42:13;10.30;;;3.08;;
30647;SDS011;17683;53.360;9.736;2023-06-26T12:44:40;6.57;;;2.70;;
30647;SDS011;17683;53.360;9.736;2023-06-26T12:47:05;10.93;;;3.05;;
30647;SDS011;17683;53.360;9.736;2023-06-26T12:49:39;10.15;;;2.60;;
30647;SDS011;17683;53.360;9.736;2023-06-26T12:52:07;10.80;;;2.50;;
30647;SDS011;17683;53.360;9.736;2023-06-26T12:54:34;14.00;;;2.97;;
30647;SDS011;17683;53.360;9.736;2023-06-26T12:57:01;9.77;;;3.38;;
30647;SDS011;17683;53.360;9.736;2023-06-26T12:59:29;8.45;;;2.97;;
30647;SDS011;17683;53.360;9.736;2023-06-26T13:01:58;15.85;;;2.70;;
30647;SDS011;17683;53.360;9.736;2023-06-26T13:04:24;8.77;;;3.22;;
30647;SDS011;17683;53.360;9.736;2023-06-26T13:06:50;12.82;;;2.65;;
30647;SDS011;17683;53.360;9.736;2023-06-26T13:09:17;8.27;;;3.05;;
30647;SDS011;17683;53.360;9.736;2023-06-26T13:11:43;6.50;;;2.47;;
30647;SDS011;17683;53.360;9.736;2023-06-26T13:14:08;8.68;;;2.85;;
30647;SDS011;17683;53.360;9.736;2023-06-26T13:16:34;10.05;;;2.50;;
30647;SDS011;17683;53.360;9.736;2023-06-26T13:19:00;8.63;;;2.58;;
30647;SDS011;17683;53.360;9.736;2023-06-26T13:21:29;8.15;;;2.35;;
30647;SDS011;17683;53.360;9.736;2023-06-26T13:23:55;5.78;;;3.05;;
30647;SDS011;17683;53.360;9.736;2023-06-26T13:26:21;5.20;;;2.67;;
30647;SDS011;17683;53.360;9.736;2023-06-26T13:28:48;6.68;;;2.08;;
30647;SDS011;17683;53.360;9.736;2023-06-26T13:31:14;7.25;;;2.60;;
30647;SDS011;17683;53.360;9.736;2023-06-26T13:33:40;7.45;;;2.28;;
30647;SDS011;17683;53.360;9.736;2023-06-26T13:36:06;6.57;;;2.30;;
30647;SDS011;17683;53.360;9.736;2023-06-26T13:38:35;4.95;;;2.65;;
30647;SDS011;17683;53.360;9.736;2023-06-26T13:41:01;5.72;;;2.60;;
30647;SDS011;17683;53.360;9.736;2023-06-26T13:43:27;9.80;;;2.53;;
30647;SDS011;17683;53.360;9.736;2023-06-26T13:45:54;4.43;;;2.15;;
30647;SDS011;17683;53.360;9.736;2023-06-26T13:48:20;5.40;;;2.28;;
30647;SDS011;17683;53.360;9.736;2023-06-26T13:50:47;4.93;;;2.38;;
30647;SDS011;17683;53.360;9.736;2023-06-26T13:53:12;5.20;;;2.35;;
30647;SDS011;17683;53.360;9.736;2023-06-26T13:55:39;6.95;;;2.30;;
30647;SDS011;17683;53.360;9.736;2023-06-26T13:58:05;4.68;;;2.35;;
30647;SDS011;17683;53.360;9.736;2023-06-26T14:00:32;4.95;;;2.33;;
30647;SDS011;17683;53.360;9.736;2023-06-26T14:03:02;10.90;;;2.90;;
30647;SDS011;17683;53.360;9.736;2023-06-26T14:05:32;3.60;;;1.88;;
30647;SDS011;17683;53.360;9.736;2023-06-26T14:07:58;7.47;;;2.58;;
30647;SDS011;17683;53.360;9.736;2023-06-26T14:10:24;8.52;;;2.60;;
30647;SDS011;17683;53.360;9.736;2023-06-26T14:12:50;7.13;;;2.10;;
30647;SDS011;17683;53.360;9.736;2023-06-26T14:15:16;6.80;;;2.35;;
30647;SDS011;17683;53.360;9.736;2023-06-26T14:17:42;4.53;;;2.22;;
30647;SDS011;17683;53.360;9.736;2023-06-26T14:20:08;5.50;;;2.95;;
30647;SDS011;17683;53.360;9.736;2023-06-26T14:22:37;4.65;;;2.58;;
30647;SDS011;17683;53.360;9.736;2023-06-26T14:25:03;4.45;;;2.15;;
30647;SDS011;17683;53.360;9.736;2023-06-26T14:27:29;6.30;;;2.83;;
30647;SDS011;17683;53.360;9.736;2023-06-26T14:29:55;4.50;;;1.95;;
30647;SDS011;17683;53.360;9.736;2023-06-26T14:32:21;6.90;;;2.50;;
30647;SDS011;17683;53.360;9.736;2023-06-26T14:34:46;8.43;;;2.40;;
30647;SDS011;17683;53.360;9.736;2023-06-26T14:37:12;6.88;;;2.10;;
30647;SDS011;17683;53.360;9.736;2023-06-26T14:39:38;3.97;;;1.92;;
30647;SDS011;17683;53.360;9.736;2023-06-26T14:42:04;10.82;;;2.75;;
30647;SDS011;17683;53.360;9.736;2023-06-26T14:44:30;6.75;;;2.33;;
30647;SDS011;17683;53.360;9.736;2023-06-26T14:46:55;7.13;;;2.70;;
30647;SDS011;17683;53.360;9.736;2023-06-26T14:49:21;5.88;;;2.35;;
30647;SDS011;17683;53.360;9.736;2023-06-26T14:51:47;5.38;;;2.80;;
30647;SDS011;17683;53.360;9.736;2023-06-26T14:54:13;4.85;;;2.22;;
30647;SDS011;17683;53.360;9.736;2023-06-26T14:56:38;5.50;;;1.80;;